Time;durP1;ratioP1;P1;durP2;ratioP2;P2;SDS_P1;SDS_P2;PMS_P1;PMS_P2;Temp;Humidity;BMP_temperature;BMP_pressure;BME280_temperature;BME280_humidity;BME280_pressure;Samples;Min_cycle;Max_cycle;Signal;HPM_P1;HPM_P2
2022/10/13 00:00:44;;;;;;;15.07;6.40;;;10.20;99.90;;;;;;5102017;28;20089;-37
2022/10/13 00:03:09;;;;;;;15.10;7.13;;;10.10;99.90;;;;;;5097555;28;20046;-37
2022/10/13 00:05:43;;;;;;;14.65;6.55;;;10.10;99.90;;;;;;5098282;28;20412;-37
2022/10/13 00:08:10;;;;;;;13.48;6.72;;;10.10;99.90;;;;;;5102449;28;20031;-37
2022/10/13 00:10:37;;;;;;;12.98;7.05;;;10.20;99.90;;;;;;5105543;28;20114;-37
2022/10/13 00:13:03;;;;;;;11.60;6.10;;;10.20;99.90;;;;;;5109893;28;20106;-37
2022/10/13 00:15:30;;;;;;;13.18;6.85;;;10.20;99.90;;;;;;5096168;28;20067;-36
2022/10/13 00:17:56;;;;;;;19.23;8.13;;;10.20;99.90;;;;;;5085478;28;20118;-36
2022/10/13 00:20:21;;;;;;;16.10;7.32;;;10.20;99.90;;;;;;5101399;28;20123;-36
2022/10/13 00:22:47;;;;;;;13.60;6.80;;;10.20;99.90;;;;;;5097951;28;20047;-45
2022/10/13 00:25:13;;;;;;;14.02;5.97;;;10.20;99.90;;;;;;5095961;28;20044;-37
2022/10/13 00:27:38;;;;;;;15.20;7.18;;;10.20;99.90;;;;;;5101552;28;20066;-37
2022/10/13 00:30:04;;;;;;;11.07;5.65;;;10.20;99.90;;;;;;5106612;28;20035;-37
2022/10/13 00:32:30;;;;;;;15.30;6.20;;;10.20;99.90;;;;;;5082481;28;20039;-37
2022/10/13 00:34:56;;;;;;;14.65;7.22;;;10.20;99.90;;;;;;5099212;28;20043;-37
2022/10/13 00:37:23;;;;;;;14.90;6.60;;;10.30;99.90;;;;;;5097103;28;20062;-37
2022/10/13 00:39:48;;;;;;;14.10;6.60;;;10.30;99.90;;;;;;5097845;28;20047;-37
2022/10/13 00:42:14;;;;;;;14.43;7.30;;;10.30;99.90;;;;;;5103830;28;20398;-37
2022/10/13 00:45:17;;;;;;;10.70;5.68;;;10.30;99.90;;;;;;5094252;28;20064;-39
2022/10/13 00:47:45;;;;;;;14.45;6.68;;;10.30;99.90;;;;;;5102759;28;20054;-37
2022/10/13 00:50:18;;;;;;;11.75;5.97;;;10.30;99.90;;;;;;5103683;28;20039;-37
2022/10/13 00:52:45;;;;;;;14.65;7.25;;;10.40;99.90;;;;;;5107165;28;20523;-37
2022/10/13 00:55:15;;;;;;;11.20;6.45;;;10.30;99.90;;;;;;5094670;28;20101;-38
2022/10/13 00:57:44;;;;;;;14.07;6.93;;;10.40;99.90;;;;;;5105563;28;20112;-39
2022/10/13 01:00:11;;;;;;;11.15;6.68;;;10.40;99.90;;;;;;5100228;28;20114;-36
2022/10/13 01:02:37;;;;;;;18.80;7.30;;;10.40;99.90;;;;;;5097388;28;20075;-37
2022/10/13 01:05:05;;;;;;;14.05;6.70;;;10.30;99.90;;;;;;5102337;28;20082;-37
2022/10/13 01:07:32;;;;;;;11.05;6.13;;;10.40;99.90;;;;;;5101167;28;20093;-38
2022/10/13 01:09:59;;;;;;;19.67;7.07;;;10.30;99.90;;;;;;5103892;28;20047;-37
2022/10/13 01:12:25;;;;;;;12.32;6.47;;;10.40;99.90;;;;;;5105044;28;20516;-37
2022/10/13 01:15:12;;;;;;;13.13;6.78;;;10.30;99.90;;;;;;5102461;28;20047;-37
2022/10/13 01:17:47;;;;;;;14.70;7.50;;;10.40;99.90;;;;;;5106929;28;20047;-37
2022/10/13 01:20:22;;;;;;;12.60;6.78;;;10.30;99.90;;;;;;5105827;28;20051;-36
2022/10/13 01:22:53;;;;;;;10.82;5.10;;;10.40;99.90;;;;;;5099630;28;20271;-38
2022/10/13 01:25:47;;;;;;;15.65;6.72;;;10.40;99.90;;;;;;5096596;28;20402;-38
2022/10/13 01:28:41;;;;;;;13.10;7.03;;;10.40;99.90;;;;;;5103134;28;20127;-37
2022/10/13 01:31:19;;;;;;;11.88;5.93;;;10.30;99.90;;;;;;5100795;28;20040;-36
2022/10/13 01:33:56;;;;;;;11.38;5.88;;;10.40;99.90;;;;;;5096564;28;20439;-37
2022/10/13 01:36:34;;;;;;;11.50;6.47;;;10.30;99.90;;;;;;5099587;28;20087;-37
2022/10/13 01:39:08;;;;;;;11.50;6.60;;;10.30;99.90;;;;;;5098525;28;20078;-37
2022/10/13 01:41:45;;;;;;;11.63;6.32;;;10.30;99.90;;;;;;5103770;28;20047;-36
2022/10/13 01:44:15;;;;;;;13.18;5.60;;;10.30;99.90;;;;;;5105773;28;20044;-36
2022/10/13 01:46:42;;;;;;;10.98;5.25;;;10.30;99.90;;;;;;5098587;28;20042;-37
2022/10/13 01:49:13;;;;;;;12.00;5.18;;;10.30;99.90;;;;;;5100488;28;20035;-37
2022/10/13 01:51:40;;;;;;;12.52;6.03;;;10.30;99.90;;;;;;5103697;28;20429;-36
2022/10/13 01:54:06;;;;;;;13.25;6.90;;;10.30;99.90;;;;;;5102242;28;20622;-37
2022/10/13 01:56:32;;;;;;;13.40;7.05;;;10.40;99.90;;;;;;5104089;28;20126;-38
2022/10/13 01:59:03;;;;;;;16.10;6.55;;;10.40;99.90;;;;;;5107357;28;20047;-37
2022/10/13 02:02:02;;;;;;;14.98;6.22;;;10.40;99.90;;;;;;5105800;28;20496;-36
2022/10/13 02:04:33;;;;;;;13.48;6.30;;;10.40;99.90;;;;;;5101973;28;20532;-36
2022/10/13 02:07:18;;;;;;;14.93;7.28;;;10.50;99.90;;;;;;5094770;28;20062;-38
2022/10/13 02:09:56;;;;;;;11.10;5.43;;;10.50;99.90;;;;;;5097505;28;20046;-37
2022/10/13 02:12:52;;;;;;;12.25;6.30;;;10.50;99.90;;;;;;5102731;28;20061;-37
2022/10/13 02:15:22;;;;;;;13.40;6.68;;;10.50;99.90;;;;;;5085661;28;20047;-37
2022/10/13 02:17:50;;;;;;;15.05;7.07;;;10.50;99.90;;;;;;5102383;28;20066;-37
2022/10/13 02:20:17;;;;;;;13.30;6.97;;;10.50;99.90;;;;;;5097195;28;20048;-38
2022/10/13 02:22:46;;;;;;;13.60;6.45;;;10.50;99.90;;;;;;5098782;28;20035;-37
2022/10/13 02:25:12;;;;;;;16.27;7.35;;;10.40;99.90;;;;;;5108353;28;20063;-37
2022/10/13 02:27:38;;;;;;;12.10;6.82;;;10.40;99.90;;;;;;5101436;28;20396;-38
2022/10/13 02:30:04;;;;;;;14.45;7.35;;;10.50;99.90;;;;;;5103149;28;20036;-37
2022/10/13 02:32:30;;;;;;;12.27;6.50;;;10.50;99.90;;;;;;5097086;28;20043;-36
2022/10/13 02:34:56;;;;;;;15.27;5.97;;;10.50;99.90;;;;;;5100682;28;20031;-37
2022/10/13 02:37:24;;;;;;;14.75;6.82;;;10.50;99.90;;;;;;5099767;28;20153;-37
2022/10/13 02:39:50;;;;;;;12.20;6.93;;;10.50;99.90;;;;;;5084130;28;20475;-37
2022/10/13 02:42:16;;;;;;;14.27;6.57;;;10.50;99.90;;;;;;5108027;28;20044;-37
2022/10/13 02:44:41;;;;;;;13.85;6.45;;;10.50;99.90;;;;;;5101518;28;20511;-36
2022/10/13 02:47:07;;;;;;;18.42;7.50;;;10.50;99.90;;;;;;5101895;28;20386;-36
2022/10/13 02:49:33;;;;;;;16.67;7.13;;;10.50;99.90;;;;;;5104355;28;20077;-37
2022/10/13 02:51:58;;;;;;;16.75;6.50;;;10.60;99.90;;;;;;5101659;28;20040;-37
2022/10/13 02:54:24;;;;;;;11.73;5.90;;;10.60;99.90;;;;;;5102854;28;20130;-37
2022/10/13 02:56:50;;;;;;;15.15;7.63;;;10.60;99.90;;;;;;5105921;28;20059;-38
2022/10/13 02:59:15;;;;;;;15.85;7.10;;;10.60;99.90;;;;;;5100700;28;20138;-38
2022/10/13 03:01:43;;;;;;;13.90;6.90;;;10.60;99.90;;;;;;5108611;28;20053;-37
2022/10/13 03:04:09;;;;;;;13.85;7.10;;;10.60;99.90;;;;;;5107995;28;20052;-38
2022/10/13 03:06:35;;;;;;;12.60;6.95;;;10.50;99.90;;;;;;5100015;28;21227;-38
2022/10/13 03:09:01;;;;;;;14.90;7.00;;;10.50;99.90;;;;;;5101715;28;20070;-38
2022/10/13 03:11:26;;;;;;;17.10;7.22;;;10.60;99.90;;;;;;5100634;28;20493;-38
2022/10/13 03:13:52;;;;;;;12.95;7.47;;;10.60;99.90;;;;;;5103424;28;20114;-38
2022/10/13 03:16:18;;;;;;;16.45;7.63;;;10.60;99.90;;;;;;5102852;28;20523;-37
2022/10/13 03:18:44;;;;;;;13.23;6.80;;;10.50;99.90;;;;;;5101883;28;20127;-37
2022/10/13 03:21:10;;;;;;;16.83;6.32;;;10.50;99.90;;;;;;5100412;28;20046;-36
2022/10/13 03:23:35;;;;;;;17.05;7.57;;;10.50;99.90;;;;;;5105337;28;20063;-36
2022/10/13 03:26:01;;;;;;;20.30;8.23;;;10.50;99.90;;;;;;5103979;28;20039;-38
2022/10/13 03:28:27;;;;;;;12.65;7.25;;;10.50;99.90;;;;;;5098851;28;20027;-37
2022/10/13 03:31:04;;;;;;;15.85;8.48;;;10.50;99.90;;;;;;5097603;28;20028;-37
2022/10/13 03:33:30;;;;;;;16.67;7.30;;;10.50;99.90;;;;;;5102817;28;20116;-36
2022/10/13 03:36:00;;;;;;;12.82;6.85;;;10.50;99.90;;;;;;5096889;28;20148;-37
2022/10/13 03:38:29;;;;;;;13.68;7.18;;;10.50;99.90;;;;;;5097047;28;20027;-37
2022/10/13 03:40:55;;;;;;;14.23;8.25;;;10.50;99.90;;;;;;5103811;28;20044;-38
2022/10/13 03:43:22;;;;;;;19.88;8.50;;;10.50;99.90;;;;;;5106634;28;20046;-38
2022/10/13 03:45:58;;;;;;;16.85;8.45;;;10.50;99.90;;;;;;5098525;28;20035;-37
2022/10/13 03:48:25;;;;;;;15.30;8.27;;;10.50;99.90;;;;;;5105403;28;20041;-38
2022/10/13 03:50:51;;;;;;;13.93;6.90;;;10.50;99.90;;;;;;5103084;28;20082;-38
2022/10/13 03:53:17;;;;;;;16.10;7.78;;;10.50;99.90;;;;;;5104840;28;20126;-39
2022/10/13 03:55:49;;;;;;;11.77;7.22;;;10.60;99.90;;;;;;5102356;28;20122;-37
2022/10/13 03:58:15;;;;;;;15.43;6.97;;;10.60;99.90;;;;;;5098351;28;20052;-37
2022/10/13 04:00:40;;;;;;;13.60;7.82;;;10.50;99.90;;;;;;5103300;28;20658;-38
2022/10/13 04:03:06;;;;;;;13.38;6.90;;;10.50;99.90;;;;;;5106493;28;20143;-37
2022/10/13 04:05:33;;;;;;;16.63;8.68;;;10.50;99.90;;;;;;5104856;28;20032;-38
2022/10/13 04:07:59;;;;;;;14.10;8.48;;;10.50;99.90;;;;;;5103116;28;20054;-39
2022/10/13 04:10:25;;;;;;;14.57;8.30;;;10.50;99.90;;;;;;5106746;28;20420;-37
2022/10/13 04:12:50;;;;;;;10.23;6.40;;;10.50;99.90;;;;;;5100517;28;20036;-38
2022/10/13 04:15:16;;;;;;;15.35;7.53;;;10.50;99.90;;;;;;5101228;28;20063;-37
2022/10/13 04:17:42;;;;;;;16.83;8.15;;;10.50;99.90;;;;;;5108007;28;20070;-37
2022/10/13 04:20:08;;;;;;;14.27;6.70;;;10.50;99.90;;;;;;5104523;28;20051;-38
2022/10/13 04:22:34;;;;;;;14.13;7.65;;;10.50;99.90;;;;;;5097929;28;20096;-38
2022/10/13 04:24:59;;;;;;;16.33;8.05;;;10.50;99.90;;;;;;5098298;28;20048;-38
2022/10/13 04:27:25;;;;;;;13.77;7.85;;;10.50;99.90;;;;;;5104541;28;20040;-38
2022/10/13 04:29:51;;;;;;;20.77;9.25;;;10.50;99.90;;;;;;5101031;28;20494;-38
2022/10/13 04:32:17;;;;;;;15.15;8.55;;;10.50;99.90;;;;;;5098616;28;20412;-38
2022/10/13 04:34:43;;;;;;;14.90;7.68;;;10.50;99.90;;;;;;5105687;28;20044;-37
2022/10/13 04:37:09;;;;;;;15.40;7.90;;;10.50;99.90;;;;;;5102263;28;20607;-36
2022/10/13 04:39:35;;;;;;;10.85;6.40;;;10.50;99.90;;;;;;5078883;28;20122;-38
2022/10/13 04:42:00;;;;;;;16.30;8.13;;;10.50;99.90;;;;;;5097784;28;20044;-37
2022/10/13 04:44:26;;;;;;;18.33;8.65;;;10.50;99.90;;;;;;5101648;28;20032;-39
2022/10/13 04:46:52;;;;;;;16.80;9.35;;;10.50;99.90;;;;;;5103067;28;20032;-38
2022/10/13 04:49:17;;;;;;;16.23;8.02;;;10.50;99.90;;;;;;5097976;28;20031;-37
2022/10/13 04:51:43;;;;;;;16.40;7.93;;;10.50;99.90;;;;;;5104793;28;20032;-38
2022/10/13 04:54:09;;;;;;;13.20;7.20;;;10.50;99.90;;;;;;5097887;28;20465;-37
2022/10/13 04:56:35;;;;;;;15.27;7.28;;;10.50;99.90;;;;;;5102261;28;20043;-38
2022/10/13 04:59:04;;;;;;;13.13;7.35;;;10.60;99.90;;;;;;5098441;28;20515;-38
2022/10/13 05:01:30;;;;;;;15.13;8.02;;;10.60;99.90;;;;;;5107888;28;20118;-39
2022/10/13 05:03:58;;;;;;;11.52;6.85;;;10.60;99.90;;;;;;5103072;28;20042;-38
2022/10/13 05:06:27;;;;;;;10.55;6.63;;;10.60;99.90;;;;;;5101233;28;20477;-42
2022/10/13 05:08:53;;;;;;;15.02;6.63;;;10.60;99.90;;;;;;5099401;28;20040;-38
2022/10/13 05:11:19;;;;;;;15.18;6.80;;;10.60;99.90;;;;;;5097486;28;20067;-38
2022/10/13 05:13:46;;;;;;;13.13;7.07;;;10.70;99.90;;;;;;5102403;28;20068;-38
2022/10/13 05:16:13;;;;;;;13.98;7.88;;;10.70;99.90;;;;;;5081315;28;20047;-37
2022/10/13 05:18:39;;;;;;;16.52;8.10;;;10.60;99.90;;;;;;5102013;28;20070;-38
2022/10/13 05:21:11;;;;;;;16.20;8.55;;;10.70;99.90;;;;;;5104479;28;20093;-38
2022/10/13 05:23:37;;;;;;;14.23;8.27;;;10.70;99.90;;;;;;5103139;28;20130;-38
2022/10/13 05:26:05;;;;;;;13.88;7.30;;;10.70;99.90;;;;;;5102583;28;20044;-39
2022/10/13 05:28:31;;;;;;;14.88;7.93;;;10.70;99.90;;;;;;5103596;28;20409;-39
2022/10/13 05:30:56;;;;;;;12.93;6.20;;;10.70;99.90;;;;;;5104011;28;20039;-38
2022/10/13 05:33:22;;;;;;;16.95;7.47;;;10.70;99.90;;;;;;5100640;28;20036;-38
2022/10/13 05:35:48;;;;;;;15.68;7.15;;;10.70;99.90;;;;;;5083495;28;20047;-38
2022/10/13 05:38:13;;;;;;;13.43;6.82;;;10.70;99.90;;;;;;5103225;28;20040;-38
2022/10/13 05:40:39;;;;;;;14.85;8.00;;;10.70;99.90;;;;;;5099233;28;20043;-39
2022/10/13 05:43:05;;;;;;;12.18;7.22;;;10.70;99.90;;;;;;5097859;28;20031;-38
2022/10/13 05:45:32;;;;;;;13.13;8.18;;;10.70;99.90;;;;;;5103170;28;20032;-39
2022/10/13 05:47:57;;;;;;;15.23;8.40;;;10.70;99.90;;;;;;5101014;28;20039;-39
2022/10/13 05:50:23;;;;;;;15.63;8.02;;;10.80;99.90;;;;;;5102986;28;20031;-37
2022/10/13 05:52:50;;;;;;;16.02;7.97;;;10.80;99.90;;;;;;5093187;28;20160;-38
2022/10/13 05:55:17;;;;;;;14.38;7.50;;;10.80;99.90;;;;;;5099393;28;20074;-38
2022/10/13 05:57:48;;;;;;;15.73;7.50;;;10.80;99.90;;;;;;5096656;28;20096;-39
2022/10/13 06:00:16;;;;;;;12.90;7.13;;;10.80;99.90;;;;;;5097743;28;20492;-38
2022/10/13 06:02:56;;;;;;;17.15;8.73;;;10.80;99.90;;;;;;5096431;28;20116;-40
2022/10/13 06:05:25;;;;;;;10.95;6.45;;;10.80;99.90;;;;;;5098640;28;20459;-37
2022/10/13 06:07:51;;;;;;;19.30;8.35;;;10.90;99.90;;;;;;5098634;28;20036;-37
2022/10/13 06:10:17;;;;;;;16.85;7.95;;;10.90;99.90;;;;;;5097999;28;20114;-38
2022/10/13 06:12:43;;;;;;;13.55;7.63;;;10.90;99.90;;;;;;5097039;28;20081;-38
2022/10/13 06:15:09;;;;;;;17.48;8.07;;;10.90;99.90;;;;;;5097069;28;20631;-38
2022/10/13 06:17:36;;;;;;;21.98;8.30;;;10.90;99.90;;;;;;5098540;28;20485;-38
2022/10/13 06:20:04;;;;;;;14.55;7.32;;;10.90;99.90;;;;;;5100808;28;20469;-37
2022/10/13 06:22:31;;;;;;;15.50;8.57;;;10.90;99.90;;;;;;5102112;28;20566;-37
2022/10/13 06:24:57;;;;;;;14.10;7.88;;;10.90;99.90;;;;;;5096476;28;20093;-37
2022/10/13 06:27:23;;;;;;;15.80;8.38;;;11.00;99.90;;;;;;5104201;28;20036;-37
2022/10/13 06:29:48;;;;;;;17.38;8.15;;;11.00;99.90;;;;;;5096503;28;20039;-38
2022/10/13 06:32:14;;;;;;;17.00;9.45;;;11.00;99.90;;;;;;5101181;28;20065;-38
2022/10/13 06:34:39;;;;;;;17.52;8.85;;;11.00;99.90;;;;;;5101949;28;20031;-38
2022/10/13 06:37:05;;;;;;;19.63;10.07;;;11.00;99.90;;;;;;5092405;28;20037;-41
2022/10/13 06:39:31;;;;;;;16.13;8.05;;;11.00;99.90;;;;;;5098205;28;20119;-38
2022/10/13 06:41:57;;;;;;;17.95;8.88;;;11.00;99.90;;;;;;5097011;28;20046;-41
2022/10/13 06:44:22;;;;;;;16.02;8.75;;;11.00;99.90;;;;;;5103867;28;20046;-40
2022/10/13 06:46:48;;;;;;;16.83;9.13;;;11.00;99.90;;;;;;5100544;28;20043;-39
2022/10/13 06:49:14;;;;;;;15.73;7.60;;;11.10;99.90;;;;;;5107894;28;20480;-39
2022/10/13 06:51:40;;;;;;;17.63;8.75;;;11.10;99.90;;;;;;5086849;28;20051;-39
2022/10/13 06:54:05;;;;;;;13.23;8.30;;;11.10;99.90;;;;;;5097500;28;20085;-39
2022/10/13 06:56:31;;;;;;;18.17;8.75;;;11.10;99.90;;;;;;5097776;28;20122;-39
2022/10/13 06:58:56;;;;;;;17.63;8.02;;;11.10;99.90;;;;;;5105820;28;20039;-40
2022/10/13 07:01:22;;;;;;;14.45;8.02;;;11.10;99.90;;;;;;5104282;28;20075;-40
2022/10/13 07:03:49;;;;;;;19.10;10.13;;;11.20;99.90;;;;;;5102891;28;20147;-40
2022/10/13 07:06:15;;;;;;;14.45;8.02;;;11.10;99.90;;;;;;5098946;28;20028;-42
2022/10/13 07:08:40;;;;;;;18.55;9.93;;;11.20;99.90;;;;;;5106401;28;20084;-40
2022/10/13 07:11:08;;;;;;;16.85;8.35;;;11.20;99.90;;;;;;5104816;28;20435;-40
2022/10/13 07:13:34;;;;;;;17.08;7.88;;;11.20;99.90;;;;;;5100687;28;20039;-39
2022/10/13 07:16:04;;;;;;;21.38;9.27;;;11.20;99.90;;;;;;5107139;28;20080;-43
2022/10/13 07:18:30;;;;;;;17.60;9.32;;;11.30;99.90;;;;;;5111274;28;20055;-39
2022/10/13 07:20:58;;;;;;;14.57;8.43;;;11.30;99.90;;;;;;5100663;28;20492;-43
2022/10/13 07:23:24;;;;;;;17.20;8.80;;;11.30;99.90;;;;;;5107597;28;20108;-39
2022/10/13 07:25:49;;;;;;;24.00;9.43;;;11.30;99.90;;;;;;5105297;28;20043;-42
2022/10/13 07:28:15;;;;;;;16.83;8.80;;;11.30;99.90;;;;;;5106528;28;20047;-40
2022/10/13 07:30:41;;;;;;;15.90;8.02;;;11.40;99.90;;;;;;5103266;28;20038;-40
2022/10/13 07:33:07;;;;;;;16.25;8.75;;;11.40;99.90;;;;;;5106269;28;20032;-42
2022/10/13 07:35:33;;;;;;;17.15;8.80;;;11.40;99.90;;;;;;5103193;28;20123;-42
2022/10/13 07:37:58;;;;;;;14.50;8.15;;;11.50;99.90;;;;;;5097377;28;20497;-38
2022/10/13 07:40:25;;;;;;;17.27;8.77;;;11.50;99.90;;;;;;5104096;28;20074;-42
2022/10/13 07:42:51;;;;;;;18.15;7.85;;;11.60;99.90;;;;;;5108034;28;20035;-43
2022/10/13 07:45:17;;;;;;;21.40;9.60;;;11.70;99.90;;;;;;5100476;28;20392;-39
2022/10/13 07:47:42;;;;;;;22.40;10.00;;;11.70;99.90;;;;;;5102506;28;20110;-41
2022/10/13 07:50:09;;;;;;;16.77;9.75;;;11.80;99.90;;;;;;5105673;28;20032;-39
2022/10/13 07:52:35;;;;;;;25.75;10.65;;;11.80;99.90;;;;;;5104269;28;20071;-40
2022/10/13 07:55:01;;;;;;;19.95;9.52;;;11.80;99.90;;;;;;5103074;28;20047;-40
2022/10/13 07:57:27;;;;;;;18.02;9.07;;;11.80;99.90;;;;;;5106364;28;20126;-39
2022/10/13 07:59:52;;;;;;;17.98;8.80;;;11.80;99.90;;;;;;5103850;28;20999;-41
2022/10/13 08:02:18;;;;;;;18.77;9.13;;;11.80;99.90;;;;;;5107808;28;20437;-40
2022/10/13 08:04:44;;;;;;;17.65;10.07;;;11.90;99.90;;;;;;5101463;28;20130;-39
2022/10/13 08:07:10;;;;;;;24.30;11.00;;;12.00;99.90;;;;;;5106008;28;20070;-39
2022/10/13 08:09:36;;;;;;;20.73;10.95;;;12.10;99.90;;;;;;5102335;28;20040;-39
2022/10/13 08:12:02;;;;;;;19.08;9.38;;;12.20;99.90;;;;;;5105499;28;20672;-40
2022/10/13 08:14:29;;;;;;;27.45;11.68;;;12.20;99.90;;;;;;5097676;28;20090;-42
2022/10/13 08:16:55;;;;;;;19.25;9.63;;;12.30;99.90;;;;;;5104292;28;20499;-40
2022/10/13 08:19:20;;;;;;;19.90;9.82;;;12.30;99.90;;;;;;5100283;28;20115;-40
2022/10/13 08:21:47;;;;;;;19.42;10.05;;;12.30;99.90;;;;;;5100993;28;20404;-41
2022/10/13 08:24:15;;;;;;;18.20;10.27;;;12.30;99.90;;;;;;5097798;28;20048;-39
2022/10/13 08:26:42;;;;;;;24.15;10.30;;;12.30;99.90;;;;;;5102177;28;20503;-41
2022/10/13 08:29:08;;;;;;;15.48;9.73;;;12.30;99.90;;;;;;5103336;28;20034;-40
2022/10/13 08:31:34;;;;;;;19.38;11.00;;;12.30;99.90;;;;;;5098699;28;20039;-41
2022/10/13 08:34:00;;;;;;;23.75;10.57;;;12.30;99.90;;;;;;5103814;28;20127;-41
2022/10/13 08:36:25;;;;;;;21.25;9.93;;;12.30;99.90;;;;;;5098425;28;20040;-40
2022/10/13 08:38:54;;;;;;;25.42;11.48;;;12.30;99.90;;;;;;5104946;28;20058;-39
2022/10/13 08:41:31;;;;;;;20.30;10.43;;;12.30;99.90;;;;;;5102356;28;20067;-43
2022/10/13 08:44:04;;;;;;;19.75;10.85;;;12.30;99.90;;;;;;5098932;28;20036;-42
2022/10/13 08:46:34;;;;;;;;;;;12.30;99.90;;;;;;5080636;28;20076;-40
2022/10/13 08:49:01;;;;;;;25.67;11.32;;;12.30;99.90;;;;;;5100124;28;19945;-39
2022/10/13 08:51:29;;;;;;;19.70;10.13;;;12.20;99.90;;;;;;5104041;28;20047;-39
2022/10/13 08:53:54;;;;;;;19.40;10.75;;;12.20;99.90;;;;;;5100619;28;20090;-38
2022/10/13 08:56:30;;;;;;;18.55;9.75;;;12.20;99.90;;;;;;5096937;28;20063;-38
2022/10/13 08:58:56;;;;;;;24.30;11.32;;;12.30;99.90;;;;;;5104589;28;20039;-38
2022/10/13 09:01:31;;;;;;;18.48;9.02;;;12.30;99.90;;;;;;5104049;28;20032;-38
2022/10/13 09:04:26;;;;;;;22.48;11.00;;;12.30;99.90;;;;;;5103812;28;20078;-39
2022/10/13 09:06:55;;;;;;;20.90;11.50;;;12.40;99.90;;;;;;5100402;28;20046;-39
2022/10/13 09:09:21;;;;;;;20.13;9.90;;;12.50;99.90;;;;;;5102447;28;20033;-39
2022/10/13 09:11:49;;;;;;;21.40;12.48;;;12.50;99.90;;;;;;5104960;28;20024;-39
2022/10/13 09:14:22;;;;;;;26.25;11.48;;;12.70;99.90;;;;;;5102138;28;20050;-39
2022/10/13 09:16:49;;;;;;;22.23;12.07;;;12.80;99.90;;;;;;5100891;28;20040;-39
2022/10/13 09:19:35;;;;;;;22.60;12.38;;;12.80;99.90;;;;;;5094738;28;20032;-40
2022/10/13 09:22:28;;;;;;;21.67;10.98;;;12.90;99.90;;;;;;5106879;28;20059;-39
2022/10/13 09:25:02;;;;;;;;;;;12.90;99.90;;;;;;5097793;28;20071;-39
2022/10/13 09:27:48;;;;;;;23.27;11.35;;;12.90;99.90;;;;;;5098734;28;19926;-38
2022/10/13 09:30:33;;;;;;;21.70;12.18;;;12.80;99.90;;;;;;5104073;28;20484;-39
2022/10/13 09:33:21;;;;;;;22.20;11.70;;;12.90;99.90;;;;;;5108192;28;20378;-38
2022/10/13 09:35:55;;;;;;;21.85;12.13;;;12.80;99.90;;;;;;5102278;28;20481;-39
2022/10/13 09:38:24;;;;;;;26.42;13.55;;;12.80;99.90;;;;;;5100560;28;20054;-39
2022/10/13 09:41:03;;;;;;;21.65;12.80;;;12.80;99.90;;;;;;5093751;28;20827;-39
2022/10/13 09:43:49;;;;;;;25.70;13.00;;;12.70;99.90;;;;;;5096280;28;20599;-39
2022/10/13 09:46:25;;;;;;;24.50;14.00;;;12.70;99.90;;;;;;5079077;28;20070;-39
2022/10/13 09:48:56;;;;;;;23.08;11.82;;;12.70;99.90;;;;;;5104003;28;20058;-38
2022/10/13 09:51:43;;;;;;;25.67;14.65;;;12.80;99.90;;;;;;5100061;28;20486;-39
2022/10/13 09:54:26;;;;;;;22.55;12.35;;;12.80;99.90;;;;;;5092381;28;20067;-39
2022/10/13 09:56:59;;;;;;;26.65;14.02;;;12.80;99.90;;;;;;5105003;28;20046;-39
2022/10/13 09:59:36;;;;;;;28.15;14.57;;;12.80;99.90;;;;;;5101999;28;20130;-38
2022/10/13 10:02:31;;;;;;;25.08;14.30;;;12.80;99.90;;;;;;5083261;28;20043;-39
2022/10/13 10:05:01;;;;;;;30.35;15.45;;;12.90;99.90;;;;;;5095118;28;20039;-38
2022/10/13 10:07:30;;;;;;;25.63;14.88;;;12.90;99.90;;;;;;5104243;28;20075;-39
2022/10/13 10:10:04;;;;;;;22.73;13.68;;;12.90;99.90;;;;;;5096760;28;20065;-38
2022/10/13 10:12:34;;;;;;;22.65;13.02;;;12.90;99.90;;;;;;5097662;28;20061;-40
2022/10/13 10:15:00;;;;;;;20.88;11.82;;;13.00;99.90;;;;;;5100110;28;20997;-40
2022/10/13 10:17:42;;;;;;;24.10;14.35;;;13.00;99.90;;;;;;5086256;28;20063;-41
2022/10/13 10:20:30;;;;;;;30.77;14.48;;;13.00;99.90;;;;;;5101474;28;20039;-41
2022/10/13 10:23:06;;;;;;;24.23;12.23;;;13.10;99.90;;;;;;5099283;28;20046;-42
2022/10/13 10:25:43;;;;;;;23.05;12.88;;;13.10;99.90;;;;;;5096865;28;20501;-41
2022/10/13 10:28:38;;;;;;;24.55;14.02;;;13.10;99.90;;;;;;5100899;28;20096;-39
2022/10/13 10:31:26;;;;;;;28.70;16.45;;;13.10;99.90;;;;;;5097153;28;20051;-39
2022/10/13 10:34:09;;;;;;;23.42;14.18;;;13.20;99.90;;;;;;5100445;28;20042;-39
2022/10/13 10:37:07;;;;;;;28.08;16.00;;;13.20;99.90;;;;;;5100322;28;20113;-40
2022/10/13 10:39:37;;;;;;;26.30;13.98;;;13.20;99.90;;;;;;5080495;28;20174;-40
2022/10/13 10:42:43;;;;;;;27.65;15.30;;;13.20;99.90;;;;;;5102519;28;20024;-38
2022/10/13 10:45:21;;;;;;;21.55;12.27;;;13.20;99.90;;;;;;5039575;28;20527;-39
2022/10/13 10:47:53;;;;;;;24.00;14.30;;;13.20;99.90;;;;;;5106014;28;20031;-39
2022/10/13 10:50:19;;;;;;;22.90;14.57;;;13.30;99.90;;;;;;5107857;28;20040;-42
2022/10/13 10:53:07;;;;;;;28.88;16.13;;;13.30;99.90;;;;;;5106824;28;20433;-40
2022/10/13 10:55:51;;;;;;;26.95;15.25;;;13.30;99.90;;;;;;5094957;28;20031;-39
2022/10/13 10:58:35;;;;;;;24.98;15.00;;;13.40;99.90;;;;;;5097952;28;20043;-38
2022/10/13 11:01:10;;;;;;;28.23;15.30;;;13.40;99.90;;;;;;5104992;28;20504;-39
2022/10/13 11:03:40;;;;;;;24.13;15.02;;;13.50;99.90;;;;;;5103507;28;20035;-44
2022/10/13 11:06:14;;;;;;;27.40;15.35;;;13.50;99.90;;;;;;5104405;28;20761;-38
2022/10/13 11:08:42;;;;;;;27.60;16.42;;;13.50;99.90;;;;;;5104143;28;20131;-38
2022/10/13 11:11:32;;;;;;;28.70;15.65;;;13.60;99.90;;;;;;5105960;28;20023;-38
2022/10/13 11:14:05;;;;;;;31.05;15.55;;;13.60;99.90;;;;;;5109686;28;20074;-37
2022/10/13 11:16:37;;;;;;;30.38;16.80;;;13.60;99.90;;;;;;5109535;28;20040;-38
2022/10/13 11:19:22;;;;;;;31.55;16.77;;;13.60;99.90;;;;;;5104019;28;20091;-38
2022/10/13 11:21:57;;;;;;;31.27;16.92;;;13.60;99.90;;;;;;5084467;28;20040;-38
2022/10/13 11:24:40;;;;;;;31.85;16.60;;;13.50;99.90;;;;;;5102842;28;20410;-37
2022/10/13 11:27:15;;;;;;;28.95;15.73;;;13.50;99.90;;;;;;5099947;28;20043;-38
2022/10/13 11:29:56;;;;;;;25.23;15.77;;;13.50;99.90;;;;;;5107498;28;20036;-39
2022/10/13 11:32:24;;;;;;;26.58;14.60;;;13.50;99.90;;;;;;5095656;28;20115;-38
2022/10/13 11:35:05;;;;;;;28.92;17.80;;;13.50;99.90;;;;;;5100906;28;20047;-38
2022/10/13 11:37:46;;;;;;;26.55;15.88;;;13.50;99.90;;;;;;5102605;28;20043;-38
2022/10/13 11:40:50;;;;;;;30.05;17.27;;;13.50;99.90;;;;;;5104657;28;20032;-38
2022/10/13 11:43:34;;;;;;;28.40;16.40;;;13.60;99.90;;;;;;5101247;28;20595;-38
2022/10/13 11:46:12;;;;;;;30.13;17.23;;;13.60;99.90;;;;;;5099697;28;20039;-38
2022/10/13 11:49:09;;;;;;;27.08;15.55;;;13.60;99.90;;;;;;5106488;28;20023;-37
2022/10/13 11:51:56;;;;;;;31.75;17.70;;;13.60;99.90;;;;;;5098592;28;20385;-37
2022/10/13 11:54:42;;;;;;;30.42;17.65;;;13.70;99.90;;;;;;5101525;28;20522;-37
2022/10/13 11:57:20;;;;;;;27.63;16.52;;;13.70;99.90;;;;;;5108050;28;20039;-40
2022/10/13 11:59:50;;;;;;;26.50;16.67;;;13.70;99.90;;;;;;5107763;28;20044;-38
2022/10/13 12:02:17;;;;;;;23.55;15.48;;;13.70;99.90;;;;;;5106620;28;20110;-38
2022/10/13 12:04:57;;;;;;;26.17;16.02;;;13.70;99.90;;;;;;5084707;28;20027;-37
2022/10/13 12:07:26;;;;;;;27.50;17.25;;;13.70;99.90;;;;;;5096004;28;20059;-37
2022/10/13 12:09:54;;;;;;;28.50;17.02;;;13.70;99.90;;;;;;5103683;28;20059;-37
2022/10/13 12:12:21;;;;;;;29.17;17.15;;;13.70;99.90;;;;;;5106802;28;20501;-37
2022/10/13 12:14:55;;;;;;;27.80;16.90;;;13.70;99.90;;;;;;5109947;28;20043;-37
2022/10/13 12:17:37;;;;;;;28.08;16.33;;;13.60;99.90;;;;;;5098592;28;20495;-38
2022/10/13 12:20:25;;;;;;;25.83;15.57;;;13.60;99.90;;;;;;5104706;28;21565;-37
2022/10/13 12:22:52;;;;;;;22.48;14.35;;;13.60;99.90;;;;;;5102642;28;20492;-37
2022/10/13 12:25:20;;;;;;;27.83;16.98;;;13.70;99.90;;;;;;5104863;28;20126;-37
2022/10/13 12:27:49;;;;;;;27.00;15.50;;;13.80;99.90;;;;;;5103067;28;20096;-38
2022/10/13 12:30:27;;;;;;;26.48;16.77;;;13.80;99.90;;;;;;5102321;28;20063;-38
2022/10/13 12:32:55;;;;;;;27.02;14.20;;;13.90;99.90;;;;;;5102844;28;20097;-37
2022/10/13 12:35:33;;;;;;;25.10;14.85;;;13.90;99.90;;;;;;5099694;28;20744;-37
2022/10/13 12:38:06;;;;;;;23.30;14.88;;;14.00;99.90;;;;;;5103602;28;20031;-37
2022/10/13 12:40:33;;;;;;;26.85;14.98;;;14.10;99.90;;;;;;5102994;28;20043;-39
2022/10/13 12:42:59;;;;;;;21.13;13.23;;;14.10;99.90;;;;;;5102995;28;20040;-38
2022/10/13 12:45:30;;;;;;;20.05;12.27;;;14.10;99.90;;;;;;5096040;28;20127;-37
2022/10/13 12:47:55;;;;;;;20.27;11.90;;;14.10;99.90;;;;;;5095345;28;20036;-38
2022/10/13 12:50:26;;;;;;;15.88;11.13;;;14.10;99.90;;;;;;5100179;28;20565;-38